createdAt,value
2023-04-12T00:00:54.967Z,90.55
2023-04-12T00:03:21.597Z,89.99
2023-04-12T00:05:48.586Z,94.73
2023-04-12T00:08:15.320Z,95.72
2023-04-12T00:10:41.794Z,99.31
2023-04-12T00:13:08.252Z,96.53
2023-04-12T00:15:34.727Z,98.77
2023-04-12T00:18:01.221Z,97.41
2023-04-12T00:20:27.793Z,98.33
2023-04-12T00:22:54.447Z,98.71
2023-04-12T00:25:20.993Z,98.99
2023-04-12T00:27:47.446Z,98.63
2023-04-12T00:30:14.011Z,99.79
2023-04-12T00:32:42.437Z,99.60
2023-04-12T00:35:09.169Z,98.39
2023-04-12T00:37:35.616Z,98.92
2023-04-12T00:40:02.916Z,97.05
2023-04-12T00:42:29.348Z,99.20
2023-04-12T00:44:55.850Z,100.00
2023-04-12T00:47:22.631Z,96.40
2023-04-12T00:49:49.267Z,99.51
2023-04-12T00:52:16.400Z,98.03
2023-04-12T00:54:43.777Z,95.57
2023-04-12T00:57:10.944Z,99.21
2023-04-12T00:59:38.842Z,99.09
2023-04-12T01:02:05.449Z,95.65
2023-04-12T01:04:32.660Z,98.37
2023-04-12T01:07:34.766Z,100.00
2023-04-12T01:10:18.086Z,98.54
2023-04-12T01:12:49.936Z,98.64
2023-04-12T01:15:17.057Z,97.77
2023-04-12T01:18:08.391Z,98.63
2023-04-12T01:20:44.814Z,96.69
2023-04-12T01:23:39.260Z,96.56
2023-04-12T01:26:41.531Z,96.03
2023-04-12T01:29:11.459Z,95.63
2023-04-12T01:31:40.955Z,97.52
2023-04-12T01:34:10.585Z,96.38
2023-04-12T01:36:39.094Z,98.52
2023-04-12T01:39:06.283Z,97.45
2023-04-12T01:41:33.022Z,96.18
2023-04-12T01:43:59.644Z,98.69
2023-04-12T01:46:26.365Z,97.40
2023-04-12T01:48:54.624Z,99.32
2023-04-12T01:51:40.040Z,97.91
2023-04-12T01:54:17.401Z,98.97
2023-04-12T01:56:50.205Z,98.03
2023-04-12T01:59:18.146Z,97.32
2023-04-12T02:01:46.278Z,99.01
2023-04-12T02:04:15.914Z,98.03
2023-04-12T02:06:43.566Z,100.00
2023-04-12T02:09:10.060Z,100.00
2023-04-12T02:11:37.867Z,99.68
2023-04-12T02:14:04.449Z,100.00
2023-04-12T02:16:30.939Z,100.00
2023-04-12T02:18:57.799Z,99.97
2023-04-12T02:21:25.080Z,100.00
2023-04-12T02:23:51.637Z,98.90
2023-04-12T02:26:18.130Z,100.00
2023-04-12T02:28:44.706Z,99.60
2023-04-12T02:31:13.466Z,100.00
2023-04-12T02:33:40.853Z,100.00
2023-04-12T02:36:10.563Z,100.00
2023-04-12T02:38:37.315Z,100.00
2023-04-12T02:41:06.122Z,100.00
2023-04-12T02:43:34.432Z,100.00
2023-04-12T02:46:04.598Z,100.00
2023-04-12T02:48:39.197Z,100.00
2023-04-12T02:51:06.434Z,100.00
2023-04-12T02:53:33.858Z,100.00
2023-04-12T02:56:11.506Z,100.00
2023-04-12T02:58:38.463Z,100.00
2023-04-12T03:01:05.691Z,100.00
2023-04-12T03:03:35.903Z,100.00
2023-04-12T03:06:15.741Z,100.00
2023-04-12T03:08:42.740Z,100.00
2023-04-12T03:11:09.218Z,100.00
2023-04-12T03:13:35.828Z,100.00
2023-04-12T03:16:20.114Z,100.00
2023-04-12T03:18:47.153Z,100.00
2023-04-12T03:21:13.861Z,100.00
2023-04-12T03:23:42.665Z,100.00
2023-04-12T03:26:16.224Z,100.00
2023-04-12T03:29:05.363Z,100.00
2023-04-12T03:31:35.239Z,100.00
2023-04-12T03:34:05.771Z,100.00
2023-04-12T03:36:32.637Z,100.00
2023-04-12T03:39:07.577Z,100.00
2023-04-12T03:41:36.617Z,100.00
2023-04-12T03:44:04.864Z,100.00
2023-04-12T03:46:34.063Z,100.00
2023-04-12T03:49:05.422Z,100.00
2023-04-12T03:51:32.945Z,100.00
2023-04-12T03:54:02.084Z,100.00
2023-04-12T03:56:32.322Z,100.00
2023-04-12T03:59:03.052Z,100.00
2023-04-12T04:01:31.214Z,100.00
2023-04-12T04:03:59.123Z,100.00
2023-04-12T04:06:26.162Z,100.00
2023-04-12T04:08:57.021Z,100.00
2023-04-12T04:11:25.450Z,100.00
2023-04-12T04:13:57.517Z,100.00
2023-04-12T04:16:24.340Z,100.00
2023-04-12T04:18:52.724Z,100.00
2023-04-12T04:21:21.018Z,100.00
2023-04-12T04:23:48.154Z,100.00
2023-04-12T04:26:16.340Z,100.00
2023-04-12T04:28:48.935Z,100.00
2023-04-12T04:31:18.504Z,100.00
2023-04-12T04:33:49.029Z,100.00
2023-04-12T04:36:15.803Z,100.00
2023-04-12T04:38:47.733Z,100.00
2023-04-12T04:41:26.218Z,100.00
2023-04-12T04:43:57.030Z,100.00
2023-04-12T04:46:28.202Z,100.00
2023-04-12T04:48:54.811Z,100.00
2023-04-12T04:51:21.584Z,100.00
2023-04-12T04:53:48.384Z,100.00
2023-04-12T04:56:17.150Z,100.00
2023-04-12T04:58:45.923Z,100.00
2023-04-12T05:01:12.463Z,100.00
2023-04-12T05:03:40.543Z,100.00
2023-04-12T05:06:08.725Z,100.00
2023-04-12T05:08:37.628Z,100.00
2023-04-12T05:11:05.042Z,100.00
2023-04-12T05:13:31.675Z,100.00
2023-04-12T05:15:58.940Z,100.00
2023-04-12T05:18:25.563Z,100.00
2023-04-12T05:20:52.899Z,100.00
2023-04-12T05:23:19.553Z,100.00
2023-04-12T05:25:47.510Z,100.00
2023-04-12T05:28:15.842Z,100.00
2023-04-12T05:30:42.335Z,100.00
2023-04-12T05:33:10.702Z,100.00
2023-04-12T05:35:43.245Z,100.00
2023-04-12T05:38:11.173Z,100.00
2023-04-12T05:40:37.689Z,100.00
2023-04-12T05:43:06.570Z,100.00
2023-04-12T05:45:33.082Z,100.00
2023-04-12T05:48:00.243Z,100.00
2023-04-12T05:50:26.892Z,100.00
2023-04-12T05:52:55.063Z,100.00
2023-04-12T05:55:26.735Z,100.00
2023-04-12T05:57:53.261Z,100.00
2023-04-12T06:00:21.716Z,100.00
2023-04-12T06:02:49.137Z,100.00
2023-04-12T06:05:17.569Z,100.00
2023-04-12T06:07:44.695Z,100.00
2023-04-12T06:10:14.242Z,100.00
2023-04-12T06:12:40.904Z,100.00
2023-04-12T06:15:08.279Z,100.00
2023-04-12T06:17:36.291Z,100.00
2023-04-12T06:20:06.650Z,100.00
2023-04-12T06:22:33.316Z,100.00
2023-04-12T06:24:59.909Z,100.00
2023-04-12T06:27:26.413Z,100.00
2023-04-12T06:29:53.005Z,100.00
2023-04-12T06:32:19.847Z,100.00
2023-04-12T06:34:46.924Z,100.00
2023-04-12T06:37:14.616Z,100.00
2023-04-12T06:39:41.209Z,100.00
2023-04-12T06:42:07.692Z,100.00
2023-04-12T06:44:38.315Z,100.00
2023-04-12T06:47:04.821Z,100.00
2023-04-12T06:49:31.378Z,100.00
2023-04-12T06:51:57.933Z,100.00
2023-04-12T06:54:28.796Z,100.00
2023-04-12T06:56:55.420Z,100.00
2023-04-12T06:59:21.888Z,100.00
2023-04-12T07:01:48.661Z,100.00
2023-04-12T07:04:15.266Z,100.00
2023-04-12T07:06:41.851Z,100.00
2023-04-12T07:09:08.532Z,100.00
2023-04-12T07:11:35.064Z,100.00
2023-04-12T07:14:01.538Z,100.00
2023-04-12T07:16:30.025Z,100.00
2023-04-12T07:18:56.862Z,100.00
2023-04-12T07:21:23.635Z,100.00
2023-04-12T07:23:50.087Z,100.00
2023-04-12T07:26:17.083Z,99.88
2023-04-12T07:28:43.565Z,99.06
2023-04-12T07:31:10.145Z,99.64
2023-04-12T07:33:36.727Z,97.98
2023-04-12T07:36:04.647Z,98.60
2023-04-12T07:38:31.231Z,99.69
2023-04-12T07:40:57.985Z,100.00
2023-04-12T07:43:24.485Z,100.00
2023-04-12T07:45:51.191Z,99.57
2023-04-12T07:48:17.812Z,100.00
2023-04-12T07:50:44.362Z,100.00
2023-04-12T07:53:18.414Z,100.00
2023-04-12T07:55:44.962Z,98.35
2023-04-12T07:58:11.422Z,95.01
2023-04-12T08:00:38.019Z,96.71
2023-04-12T08:03:04.689Z,93.40
2023-04-12T08:05:31.506Z,95.12
2023-04-12T08:07:58.009Z,92.26
2023-04-12T08:10:24.593Z,94.57
2023-04-12T08:12:51.082Z,94.98
2023-04-12T08:15:17.557Z,95.45
2023-04-12T08:17:44.179Z,95.81
2023-04-12T08:20:11.245Z,92.79
2023-04-12T08:22:37.869Z,91.68
2023-04-12T08:25:04.628Z,89.03
2023-04-12T08:27:31.124Z,91.40
2023-04-12T08:29:57.706Z,91.68
2023-04-12T08:32:24.252Z,88.59
2023-04-12T08:34:50.762Z,93.37
2023-04-12T08:37:17.300Z,89.45
2023-04-12T08:39:44.015Z,88.10
2023-04-12T08:42:10.918Z,90.59
2023-04-12T08:44:39.044Z,91.09
2023-04-12T08:47:07.700Z,89.56
2023-04-12T08:49:35.216Z,89.03
2023-04-12T08:52:07.161Z,89.48
2023-04-12T08:54:34.939Z,87.40
2023-04-12T08:57:04.163Z,86.10
2023-04-12T08:59:31.986Z,87.44
2023-04-12T09:01:59.322Z,85.18
2023-04-12T09:04:26.136Z,85.90
2023-04-12T09:06:52.706Z,82.77
2023-04-12T09:09:19.237Z,83.87
2023-04-12T09:11:45.681Z,85.04
2023-04-12T09:14:23.060Z,88.24
2023-04-12T09:16:50.197Z,85.16
2023-04-12T09:19:29.726Z,79.01
2023-04-12T09:21:57.008Z,77.58
2023-04-12T09:24:23.718Z,78.12
2023-04-12T09:27:06.888Z,76.54
2023-04-12T09:29:33.843Z,74.89
2023-04-12T09:32:05.394Z,76.53
2023-04-12T09:34:32.378Z,72.93
2023-04-12T09:36:59.164Z,71.76
2023-04-12T09:39:33.262Z,68.45
2023-04-12T09:42:21.489Z,60.48
2023-04-12T09:44:57.636Z,65.85
2023-04-12T09:47:36.936Z,59.87
2023-04-12T09:50:04.675Z,62.91
2023-04-12T09:52:36.146Z,60.32
2023-04-12T09:55:03.325Z,60.77
2023-04-12T09:57:30.824Z,60.40
2023-04-12T10:00:01.196Z,60.23
2023-04-12T10:02:28.110Z,60.59
2023-04-12T10:04:55.066Z,60.23
2023-04-12T10:07:21.909Z,59.75
2023-04-12T10:09:48.468Z,59.39
2023-04-12T10:12:15.582Z,58.44
2023-04-12T10:14:43.462Z,57.23
2023-04-12T10:17:10.617Z,57.07
2023-04-12T10:19:38.417Z,56.44
2023-04-12T10:22:04.972Z,54.41
2023-04-12T10:24:31.671Z,54.59
2023-04-12T10:26:59.345Z,54.48
2023-04-12T10:29:31.037Z,54.11
2023-04-12T10:32:17.587Z,53.72
2023-04-12T10:34:44.320Z,54.33
2023-04-12T10:37:10.768Z,52.69
2023-04-12T10:39:45.105Z,51.18
2023-04-12T10:42:15.753Z,49.96
2023-04-12T10:44:42.338Z,48.41
2023-04-12T10:47:08.932Z,47.97
2023-04-12T10:49:35.702Z,47.27
2023-04-12T10:52:02.136Z,46.96
2023-04-12T10:54:28.586Z,45.69
2023-04-12T10:56:55.050Z,45.97
2023-04-12T11:00:01.057Z,44.12
2023-04-12T11:02:27.793Z,46.18
2023-04-12T11:05:06.819Z,47.46
2023-04-12T11:07:53.286Z,47.55
2023-04-12T11:10:38.846Z,47.94
2023-04-12T11:13:06.381Z,47.30
2023-04-12T11:15:32.907Z,45.42
2023-04-12T11:18:00.069Z,44.52
2023-04-12T11:20:27.593Z,44.07
2023-04-12T11:22:54.834Z,43.98
2023-04-12T11:25:24.122Z,43.36
2023-04-12T11:27:52.113Z,42.90
2023-04-12T11:30:18.762Z,44.15
2023-04-12T11:32:45.858Z,44.28
2023-04-12T11:35:15.040Z,43.03
2023-04-12T11:37:41.863Z,42.76
2023-04-12T11:40:09.328Z,42.65
2023-04-12T11:42:35.966Z,42.67
2023-04-12T11:45:06.841Z,39.66
2023-04-12T11:47:43.940Z,40.91
2023-04-12T11:50:10.709Z,41.07
2023-04-12T11:52:37.198Z,41.13
2023-04-12T11:55:05.478Z,40.60
2023-04-12T11:57:32.649Z,40.59
2023-04-12T11:59:59.261Z,41.28
2023-04-12T12:02:30.247Z,39.93
2023-04-12T12:04:58.759Z,40.92
2023-04-12T12:07:26.008Z,39.87
2023-04-12T12:09:52.760Z,40.58
2023-04-12T12:12:19.465Z,40.08
2023-04-12T12:14:45.980Z,40.60
2023-04-12T12:17:14.436Z,40.24
2023-04-12T12:19:46.056Z,38.54
2023-04-12T12:22:19.642Z,39.86
2023-04-12T12:24:56.937Z,40.78
2023-04-12T12:27:39.626Z,40.40
2023-04-12T12:30:09.810Z,38.70
2023-04-12T12:32:38.355Z,40.41
2023-04-12T12:35:12.497Z,39.98
2023-04-12T12:37:51.710Z,38.67
2023-04-12T12:40:18.981Z,39.16
2023-04-12T12:42:46.414Z,39.50
2023-04-12T12:45:13.848Z,40.62
2023-04-12T12:47:47.100Z,41.74
2023-04-12T12:50:13.712Z,42.22
2023-04-12T12:52:40.231Z,42.14
2023-04-12T12:55:07.395Z,43.02
2023-04-12T12:57:33.872Z,43.48
2023-04-12T13:00:00.294Z,44.17
2023-04-12T13:02:26.973Z,44.69
2023-04-12T13:04:53.693Z,44.67
2023-04-12T13:07:20.302Z,44.81
2023-04-12T13:09:46.782Z,45.30
2023-04-12T13:12:13.446Z,45.03
2023-04-12T13:14:39.891Z,45.23
2023-04-12T13:17:06.405Z,44.90
2023-04-12T13:19:32.946Z,44.78
2023-04-12T13:21:59.873Z,45.87
2023-04-12T13:24:26.371Z,45.65
2023-04-12T13:26:52.954Z,45.75
2023-04-12T13:29:19.409Z,46.29
2023-04-12T13:31:45.994Z,47.71
2023-04-12T13:34:12.564Z,48.43
2023-04-12T13:36:39.128Z,50.61
2023-04-12T13:39:05.732Z,53.77
2023-04-12T13:41:32.415Z,57.22
2023-04-12T13:43:58.908Z,58.73
2023-04-12T13:46:25.529Z,59.36
2023-04-12T13:48:52.114Z,59.66
2023-04-12T13:51:18.669Z,60.77
2023-04-12T13:53:45.197Z,59.70
2023-04-12T13:56:11.701Z,59.48
2023-04-12T13:58:38.212Z,59.22
2023-04-12T14:01:04.917Z,59.36
2023-04-12T14:03:31.468Z,59.86
2023-04-12T14:05:58.043Z,58.53
2023-04-12T14:08:24.536Z,58.10
2023-04-12T14:10:51.863Z,59.01
2023-04-12T14:13:18.340Z,59.91
2023-04-12T14:15:44.767Z,61.70
2023-04-12T14:18:11.349Z,61.04
2023-04-12T14:20:38.051Z,61.99
2023-04-12T14:23:06.443Z,63.16
2023-04-12T14:25:35.473Z,63.78
2023-04-12T14:28:01.916Z,65.50
2023-04-12T14:30:28.412Z,64.63
2023-04-12T14:32:54.898Z,62.39
2023-04-12T14:35:21.390Z,60.80
2023-04-12T14:37:48.138Z,59.01
2023-04-12T14:40:14.959Z,57.78
2023-04-12T14:42:41.431Z,55.70
2023-04-12T14:45:11.318Z,52.66
2023-04-12T14:47:38.077Z,52.19
2023-04-12T14:50:04.881Z,52.02
2023-04-12T14:52:31.344Z,49.85
2023-04-12T14:54:57.806Z,49.67
2023-04-12T14:57:24.274Z,50.51
2023-04-12T14:59:50.832Z,49.33
2023-04-12T15:02:17.592Z,49.29
2023-04-12T15:04:44.255Z,48.47
2023-04-12T15:07:10.837Z,48.72
2023-04-12T15:09:37.375Z,49.95
2023-04-12T15:12:03.842Z,50.69
2023-04-12T15:14:30.328Z,52.12
2023-04-12T15:16:56.842Z,52.67
2023-04-12T15:19:23.594Z,53.04
2023-04-12T15:21:53.885Z,56.63
2023-04-12T15:24:21.221Z,58.38
2023-04-12T15:26:51.678Z,61.42
2023-04-12T15:29:19.893Z,63.48
2023-04-12T15:31:46.351Z,64.55
2023-04-12T15:34:13.074Z,66.50
2023-04-12T15:36:39.636Z,67.58
2023-04-12T15:39:06.464Z,68.67
2023-04-12T15:41:34.323Z,70.38
2023-04-12T15:44:00.776Z,72.04
2023-04-12T15:46:27.272Z,72.13
2023-04-12T15:48:53.737Z,73.02
2023-04-12T15:51:20.348Z,73.92
2023-04-12T15:53:46.781Z,74.11
2023-04-12T15:56:13.235Z,75.03
2023-04-12T15:58:39.740Z,75.08
2023-04-12T16:01:06.636Z,73.96
2023-04-12T16:03:33.269Z,73.77
2023-04-12T16:05:59.771Z,75.11
2023-04-12T16:08:26.326Z,74.33
2023-04-12T16:10:52.790Z,73.16
2023-04-12T16:13:19.301Z,73.65
2023-04-12T16:15:46.440Z,73.47
2023-04-12T16:18:13.203Z,72.67
2023-04-12T16:20:39.827Z,71.99
2023-04-12T16:23:06.710Z,72.19
2023-04-12T16:25:33.171Z,72.13
2023-04-12T16:27:59.699Z,72.80
2023-04-12T16:30:26.201Z,73.27
2023-04-12T16:32:52.761Z,73.51
2023-04-12T16:35:19.293Z,73.62
2023-04-12T16:37:45.912Z,73.77
2023-04-12T16:40:12.489Z,74.78
2023-04-12T16:42:42.785Z,74.85
2023-04-12T16:45:10.889Z,71.76
2023-04-12T16:47:40.029Z,68.52
2023-04-12T16:50:07.054Z,64.74
2023-04-12T16:52:33.641Z,63.63
2023-04-12T16:55:00.393Z,62.74
2023-04-12T16:57:26.958Z,60.61
2023-04-12T16:59:54.742Z,57.68
2023-04-12T17:02:21.394Z,57.13
2023-04-12T17:04:48.003Z,56.61
2023-04-12T17:07:14.461Z,54.33
2023-04-12T17:09:40.983Z,51.81
2023-04-12T17:12:07.656Z,48.93
2023-04-12T17:14:34.169Z,48.60
2023-04-12T17:17:00.703Z,48.87
2023-04-12T17:19:27.218Z,48.64
2023-04-12T17:21:53.863Z,49.23
2023-04-12T17:24:20.367Z,50.75
2023-04-12T17:26:46.824Z,51.20
2023-04-12T17:29:13.379Z,51.63
2023-04-12T17:31:39.837Z,51.73
2023-04-12T17:34:06.542Z,52.92
2023-04-12T17:36:33.016Z,54.71
2023-04-12T17:39:00.397Z,55.55
2023-04-12T17:41:27.552Z,56.29
2023-04-12T17:43:54.159Z,56.91
2023-04-12T17:46:20.749Z,58.33
2023-04-12T17:48:47.355Z,59.19
2023-04-12T17:51:13.896Z,60.03
2023-04-12T17:53:40.372Z,60.99
2023-04-12T17:56:06.981Z,61.89
2023-04-12T17:58:33.517Z,63.23
2023-04-12T18:01:00.353Z,63.75
2023-04-12T18:03:27.302Z,64.25
2023-04-12T18:05:54.043Z,64.56
2023-04-12T18:08:20.524Z,64.96
2023-04-12T18:10:46.968Z,65.55
2023-04-12T18:13:13.421Z,66.08
2023-04-12T18:15:39.919Z,66.24
2023-04-12T18:18:06.547Z,67.13
2023-04-12T18:20:33.141Z,68.12
2023-04-12T18:22:59.745Z,67.80
2023-04-12T18:25:26.305Z,69.21
2023-04-12T18:27:52.878Z,69.34
2023-04-12T18:30:19.508Z,69.58
2023-04-12T18:32:46.160Z,69.23
2023-04-12T18:35:12.687Z,69.71
2023-04-12T18:37:39.173Z,70.44
2023-04-12T18:40:05.989Z,70.84
2023-04-12T18:42:32.678Z,71.14
2023-04-12T18:44:59.113Z,71.11
2023-04-12T18:47:28.789Z,71.12
2023-04-12T18:49:55.451Z,71.07
2023-04-12T18:52:21.910Z,70.96
2023-04-12T18:54:48.418Z,70.97
2023-04-12T18:57:15.629Z,71.11
2023-04-12T18:59:42.229Z,70.97
2023-04-12T19:02:08.724Z,71.79
2023-04-12T19:04:35.236Z,71.77
2023-04-12T19:07:01.840Z,71.54
2023-04-12T19:09:28.541Z,71.40
2023-04-12T19:11:55.045Z,71.70
2023-04-12T19:14:21.585Z,72.00
2023-04-12T19:16:48.154Z,72.29
2023-04-12T19:19:14.630Z,72.15
2023-04-12T19:21:41.099Z,72.57
2023-04-12T19:24:07.723Z,73.40
2023-04-12T19:26:34.221Z,73.28
2023-04-12T19:29:00.793Z,72.42
2023-04-12T19:31:27.400Z,73.23
2023-04-12T19:33:54.777Z,72.72
2023-04-12T19:36:21.322Z,73.31
2023-04-12T19:38:47.915Z,72.80
2023-04-12T19:41:14.585Z,73.33
2023-04-12T19:44:00.329Z,73.06
2023-04-12T19:46:47.419Z,73.86
2023-04-12T19:49:35.629Z,73.43
2023-04-12T19:52:22.491Z,72.79
2023-04-12T19:55:10.391Z,72.99
2023-04-12T19:57:58.228Z,73.61
2023-04-12T20:00:45.078Z,73.91
2023-04-12T20:03:31.909Z,73.48
2023-04-12T20:06:18.747Z,74.78
2023-04-12T20:09:05.561Z,75.19
2023-04-12T20:11:52.729Z,75.66
2023-04-12T20:14:39.556Z,76.19
2023-04-12T20:17:26.406Z,76.25
2023-04-12T20:20:13.184Z,76.34
2023-04-12T20:23:00.006Z,76.29
2023-04-12T20:25:46.835Z,76.41
2023-04-12T20:28:33.781Z,77.57
2023-04-12T20:31:20.611Z,77.28
2023-04-12T20:34:07.486Z,77.35
2023-04-12T20:36:54.717Z,77.52
2023-04-12T20:39:41.724Z,78.47
2023-04-12T20:42:28.589Z,78.52
2023-04-12T20:45:15.407Z,79.52
2023-04-12T20:48:02.486Z,79.36
2023-04-12T20:50:49.364Z,79.12
2023-04-12T20:53:36.139Z,79.40
2023-04-12T20:56:25.283Z,81.04
2023-04-12T20:59:12.110Z,79.64
2023-04-12T21:01:59.649Z,80.33
2023-04-12T21:04:46.586Z,80.33
2023-04-12T21:07:33.539Z,80.60
2023-04-12T21:10:20.418Z,81.43
2023-04-12T21:13:07.218Z,80.52
2023-04-12T21:15:55.274Z,81.33
2023-04-12T21:18:42.092Z,80.87
2023-04-12T21:21:28.909Z,80.87
2023-04-12T21:24:15.786Z,82.40
2023-04-12T21:27:02.610Z,81.76
2023-04-12T21:29:49.427Z,81.90
2023-04-12T21:32:36.656Z,82.36
2023-04-12T21:35:23.557Z,82.35
2023-04-12T21:38:10.341Z,82.74
2023-04-12T21:41:04.903Z,83.30
2023-04-12T21:43:52.071Z,83.55
2023-04-12T21:46:38.945Z,83.38
2023-04-12T21:49:25.749Z,82.50
2023-04-12T21:52:12.603Z,82.81
2023-04-12T21:54:59.737Z,83.40
2023-04-12T21:57:46.959Z,82.90
2023-04-12T22:00:33.739Z,83.29
2023-04-12T22:03:20.654Z,83.49
2023-04-12T22:06:07.975Z,82.08
2023-04-12T22:08:54.764Z,82.08
2023-04-12T22:11:41.577Z,83.00
2023-04-12T22:14:28.619Z,82.59
2023-04-12T22:17:17.325Z,81.49
2023-04-12T22:20:04.686Z,82.48
2023-04-12T22:22:51.502Z,82.16
2023-04-12T22:25:38.342Z,82.55
2023-04-12T22:28:25.191Z,81.94
2023-04-12T22:31:12.760Z,82.42
2023-04-12T22:33:59.743Z,82.00
2023-04-12T22:36:47.902Z,82.08
2023-04-12T22:39:34.730Z,82.65
2023-04-12T22:45:08.959Z,81.16
2023-04-12T22:47:55.822Z,81.65
2023-04-12T22:50:43.366Z,81.20
2023-04-12T22:53:31.898Z,81.03
2023-04-12T22:56:18.742Z,81.26
2023-04-12T22:59:05.540Z,81.22
2023-04-12T23:01:52.462Z,81.32
2023-04-12T23:04:39.396Z,81.35
2023-04-12T23:07:26.354Z,81.28
2023-04-12T23:10:13.282Z,80.98
2023-04-12T23:13:00.137Z,81.89
2023-04-12T23:15:46.996Z,81.68
2023-04-12T23:18:33.839Z,81.11
2023-04-12T23:21:20.767Z,81.17
2023-04-12T23:24:08.476Z,80.78
2023-04-12T23:26:55.312Z,81.12
2023-04-12T23:29:42.122Z,81.92
2023-04-12T23:32:28.952Z,80.75
2023-04-12T23:35:15.873Z,81.06
2023-04-12T23:38:02.684Z,81.02
2023-04-12T23:40:50.419Z,80.83
2023-04-12T23:43:37.419Z,81.11
2023-04-12T23:46:25.525Z,80.49
2023-04-12T23:49:12.398Z,81.74
2023-04-12T23:51:59.484Z,81.24
2023-04-12T23:54:46.401Z,80.86
2023-04-12T23:57:33.225Z,80.77
